sensor_id;sensor_type;location;lat;lon;timestamp;P1;durP1;ratioP1;P2;durP2;ratioP2
53151;SDS011;39234;53.158;6.322;2022-11-20T00:00:10;19.05;;;12.82;;
53151;SDS011;39234;53.158;6.322;2022-11-20T00:02:37;21.50;;;13.85;;
53151;SDS011;39234;53.158;6.322;2022-11-20T00:05:03;19.33;;;13.57;;
53151;SDS011;39234;53.158;6.322;2022-11-20T00:07:29;26.38;;;14.38;;
53151;SDS011;39234;53.158;6.322;2022-11-20T00:09:55;21.73;;;14.10;;
53151;SDS011;39234;53.158;6.322;2022-11-20T00:12:21;24.67;;;14.52;;
53151;SDS011;39234;53.158;6.322;2022-11-20T00:14:47;23.05;;;14.23;;
53151;SDS011;39234;53.158;6.322;2022-11-20T00:17:13;21.77;;;14.70;;
53151;SDS011;39234;53.158;6.322;2022-11-20T00:19:39;21.50;;;12.82;;
53151;SDS011;39234;53.158;6.322;2022-11-20T00:22:05;22.10;;;13.57;;
53151;SDS011;39234;53.158;6.322;2022-11-20T00:24:31;21.73;;;13.77;;
53151;SDS011;39234;53.158;6.322;2022-11-20T00:26:57;20.83;;;14.30;;
53151;SDS011;39234;53.158;6.322;2022-11-20T00:29:23;21.50;;;14.52;;
53151;SDS011;39234;53.158;6.322;2022-11-20T00:31:49;23.45;;;15.18;;
53151;SDS011;39234;53.158;6.322;2022-11-20T00:34:15;23.98;;;14.30;;
53151;SDS011;39234;53.158;6.322;2022-11-20T00:36:41;22.58;;;14.50;;
53151;SDS011;39234;53.158;6.322;2022-11-20T00:39:08;23.90;;;15.50;;
53151;SDS011;39234;53.158;6.322;2022-11-20T00:41:34;23.50;;;15.10;;
53151;SDS011;39234;53.158;6.322;2022-11-20T00:44:00;22.58;;;15.30;;
53151;SDS011;39234;53.158;6.322;2022-11-20T00:46:27;20.63;;;14.50;;
53151;SDS011;39234;53.158;6.322;2022-11-20T00:48:53;22.05;;;14.82;;
53151;SDS011;39234;53.158;6.322;2022-11-20T00:51:20;22.23;;;15.13;;
53151;SDS011;39234;53.158;6.322;2022-11-20T00:53:47;22.75;;;14.15;;
53151;SDS011;39234;53.158;6.322;2022-11-20T00:56:14;20.30;;;14.02;;
53151;SDS011;39234;53.158;6.322;2022-11-20T00:58:41;22.00;;;14.00;;
53151;SDS011;39234;53.158;6.322;2022-11-20T01:01:08;21.13;;;14.00;;
53151;SDS011;39234;53.158;6.322;2022-11-20T01:03:36;22.27;;;14.48;;
53151;SDS011;39234;53.158;6.322;2022-11-20T01:06:02;19.63;;;13.35;;
53151;SDS011;39234;53.158;6.322;2022-11-20T01:08:30;20.08;;;14.00;;
53151;SDS011;39234;53.158;6.322;2022-11-20T01:11:00;20.00;;;14.02;;
53151;SDS011;39234;53.158;6.322;2022-11-20T01:13:27;19.70;;;13.70;;
53151;SDS011;39234;53.158;6.322;2022-11-20T01:16:12;20.80;;;14.32;;
53151;SDS011;39234;53.158;6.322;2022-11-20T01:18:40;23.30;;;15.00;;
53151;SDS011;39234;53.158;6.322;2022-11-20T01:21:09;20.33;;;13.35;;
53151;SDS011;39234;53.158;6.322;2022-11-20T01:23:36;20.15;;;12.23;;
53151;SDS011;39234;53.158;6.322;2022-11-20T01:26:03;19.60;;;13.20;;
53151;SDS011;39234;53.158;6.322;2022-11-20T01:28:31;20.08;;;13.80;;
53151;SDS011;39234;53.158;6.322;2022-11-20T01:30:57;20.80;;;13.55;;
53151;SDS011;39234;53.158;6.322;2022-11-20T01:33:23;21.35;;;13.95;;
53151;SDS011;39234;53.158;6.322;2022-11-20T01:35:49;20.63;;;13.40;;
53151;SDS011;39234;53.158;6.322;2022-11-20T01:38:16;20.98;;;13.93;;
53151;SDS011;39234;53.158;6.322;2022-11-20T01:40:42;20.88;;;13.77;;
53151;SDS011;39234;53.158;6.322;2022-11-20T01:43:18;22.30;;;14.57;;
53151;SDS011;39234;53.158;6.322;2022-11-20T01:48:19;20.90;;;14.30;;
53151;SDS011;39234;53.158;6.322;2022-11-20T01:50:48;20.08;;;13.55;;
53151;SDS011;39234;53.158;6.322;2022-11-20T01:53:16;23.60;;;14.32;;
53151;SDS011;39234;53.158;6.322;2022-11-20T01:55:48;20.30;;;13.32;;
53151;SDS011;39234;53.158;6.322;2022-11-20T01:58:15;23.08;;;14.65;;
53151;SDS011;39234;53.158;6.322;2022-11-20T02:00:42;21.33;;;14.52;;
53151;SDS011;39234;53.158;6.322;2022-11-20T02:03:09;19.25;;;13.38;;
53151;SDS011;39234;53.158;6.322;2022-11-20T02:05:38;18.88;;;12.90;;
53151;SDS011;39234;53.158;6.322;2022-11-20T02:08:05;19.38;;;12.50;;
53151;SDS011;39234;53.158;6.322;2022-11-20T02:10:32;18.42;;;12.70;;
53151;SDS011;39234;53.158;6.322;2022-11-20T02:12:58;19.13;;;12.27;;
53151;SDS011;39234;53.158;6.322;2022-11-20T02:15:43;17.90;;;13.07;;
53151;SDS011;39234;53.158;6.322;2022-11-20T02:18:10;21.80;;;13.98;;
53151;SDS011;39234;53.158;6.322;2022-11-20T02:20:37;21.02;;;13.02;;
53151;SDS011;39234;53.158;6.322;2022-11-20T02:28:02;20.63;;;12.90;;
53151;SDS011;39234;53.158;6.322;2022-11-20T02:30:28;20.67;;;13.65;;
53151;SDS011;39234;53.158;6.322;2022-11-20T02:32:54;18.60;;;12.65;;
53151;SDS011;39234;53.158;6.322;2022-11-20T02:37:47;19.77;;;13.35;;
53151;SDS011;39234;53.158;6.322;2022-11-20T02:40:15;22.00;;;14.00;;
53151;SDS011;39234;53.158;6.322;2022-11-20T02:42:42;18.48;;;12.23;;
53151;SDS011;39234;53.158;6.322;2022-11-20T02:45:08;21.77;;;13.63;;
53151;SDS011;39234;53.158;6.322;2022-11-20T02:47:34;21.35;;;14.70;;
53151;SDS011;39234;53.158;6.322;2022-11-20T02:50:00;21.33;;;13.65;;
53151;SDS011;39234;53.158;6.322;2022-11-20T02:52:27;16.60;;;11.45;;
53151;SDS011;39234;53.158;6.322;2022-11-20T02:54:54;20.05;;;12.10;;
53151;SDS011;39234;53.158;6.322;2022-11-20T02:57:20;18.50;;;13.02;;
53151;SDS011;39234;53.158;6.322;2022-11-20T02:59:46;21.08;;;13.43;;
53151;SDS011;39234;53.158;6.322;2022-11-20T03:02:12;19.70;;;12.68;;
53151;SDS011;39234;53.158;6.322;2022-11-20T03:04:38;17.55;;;12.82;;
53151;SDS011;39234;53.158;6.322;2022-11-20T03:07:04;17.48;;;12.50;;
53151;SDS011;39234;53.158;6.322;2022-11-20T03:09:31;16.50;;;11.52;;
53151;SDS011;39234;53.158;6.322;2022-11-20T03:11:57;21.92;;;13.25;;
53151;SDS011;39234;53.158;6.322;2022-11-20T03:14:23;18.45;;;12.50;;
53151;SDS011;39234;53.158;6.322;2022-11-20T03:16:49;17.98;;;12.38;;
53151;SDS011;39234;53.158;6.322;2022-11-20T03:19:15;20.52;;;12.05;;
53151;SDS011;39234;53.158;6.322;2022-11-20T03:21:41;17.63;;;12.43;;
53151;SDS011;39234;53.158;6.322;2022-11-20T03:24:07;22.98;;;13.18;;
53151;SDS011;39234;53.158;6.322;2022-11-20T03:26:33;18.35;;;12.55;;
53151;SDS011;39234;53.158;6.322;2022-11-20T03:29:01;18.02;;;11.68;;
53151;SDS011;39234;53.158;6.322;2022-11-20T03:31:32;16.58;;;11.98;;
53151;SDS011;39234;53.158;6.322;2022-11-20T03:34:03;19.92;;;11.68;;
53151;SDS011;39234;53.158;6.322;2022-11-20T03:36:29;17.05;;;11.88;;
53151;SDS011;39234;53.158;6.322;2022-11-20T03:38:55;17.63;;;11.88;;
53151;SDS011;39234;53.158;6.322;2022-11-20T03:41:23;15.82;;;11.55;;
53151;SDS011;39234;53.158;6.322;2022-11-20T03:43:56;16.83;;;11.60;;
53151;SDS011;39234;53.158;6.322;2022-11-20T03:46:23;17.77;;;11.85;;
53151;SDS011;39234;53.158;6.322;2022-11-20T03:48:49;19.55;;;12.43;;
53151;SDS011;39234;53.158;6.322;2022-11-20T03:51:16;16.63;;;10.98;;
53151;SDS011;39234;53.158;6.322;2022-11-20T03:53:44;15.38;;;10.48;;
53151;SDS011;39234;53.158;6.322;2022-11-20T03:56:11;16.35;;;10.30;;
53151;SDS011;39234;53.158;6.322;2022-11-20T03:58:39;16.38;;;10.40;;
53151;SDS011;39234;53.158;6.322;2022-11-20T04:01:09;15.50;;;10.43;;
53151;SDS011;39234;53.158;6.322;2022-11-20T04:03:36;12.55;;;9.15;;
53151;SDS011;39234;53.158;6.322;2022-11-20T04:06:07;15.02;;;10.43;;
53151;SDS011;39234;53.158;6.322;2022-11-20T04:08:34;15.30;;;9.77;;
53151;SDS011;39234;53.158;6.322;2022-11-20T04:11:14;14.10;;;9.32;;
53151;SDS011;39234;53.158;6.322;2022-11-20T04:13:40;15.90;;;9.50;;
53151;SDS011;39234;53.158;6.322;2022-11-20T04:16:07;15.27;;;9.40;;
53151;SDS011;39234;53.158;6.322;2022-11-20T04:18:33;14.60;;;9.13;;
53151;SDS011;39234;53.158;6.322;2022-11-20T04:20:59;13.35;;;9.02;;
53151;SDS011;39234;53.158;6.322;2022-11-20T04:23:26;14.07;;;9.48;;
53151;SDS011;39234;53.158;6.322;2022-11-20T04:25:52;14.10;;;8.88;;
53151;SDS011;39234;53.158;6.322;2022-11-20T04:28:18;13.70;;;9.15;;
53151;SDS011;39234;53.158;6.322;2022-11-20T04:30:44;12.38;;;8.85;;
53151;SDS011;39234;53.158;6.322;2022-11-20T04:33:10;12.27;;;8.23;;
53151;SDS011;39234;53.158;6.322;2022-11-20T04:35:37;12.20;;;8.38;;
53151;SDS011;39234;53.158;6.322;2022-11-20T04:38:03;13.52;;;9.40;;
53151;SDS011;39234;53.158;6.322;2022-11-20T04:40:30;13.02;;;8.63;;
53151;SDS011;39234;53.158;6.322;2022-11-20T04:42:56;13.82;;;8.52;;
53151;SDS011;39234;53.158;6.322;2022-11-20T04:45:22;14.07;;;9.10;;
53151;SDS011;39234;53.158;6.322;2022-11-20T04:47:49;13.05;;;8.73;;
53151;SDS011;39234;53.158;6.322;2022-11-20T04:50:15;13.98;;;9.38;;
53151;SDS011;39234;53.158;6.322;2022-11-20T04:52:41;14.63;;;9.27;;
53151;SDS011;39234;53.158;6.322;2022-11-20T04:55:07;12.95;;;8.18;;
53151;SDS011;39234;53.158;6.322;2022-11-20T04:57:33;12.40;;;8.40;;
53151;SDS011;39234;53.158;6.322;2022-11-20T04:59:59;14.95;;;9.07;;
53151;SDS011;39234;53.158;6.322;2022-11-20T05:02:25;12.70;;;8.30;;
53151;SDS011;39234;53.158;6.322;2022-11-20T05:04:51;13.13;;;9.27;;
53151;SDS011;39234;53.158;6.322;2022-11-20T05:07:17;15.07;;;9.43;;
53151;SDS011;39234;53.158;6.322;2022-11-20T05:09:44;14.52;;;9.40;;
53151;SDS011;39234;53.158;6.322;2022-11-20T05:12:10;13.77;;;9.30;;
53151;SDS011;39234;53.158;6.322;2022-11-20T05:14:36;11.80;;;8.02;;
53151;SDS011;39234;53.158;6.322;2022-11-20T05:17:02;13.35;;;8.95;;
53151;SDS011;39234;53.158;6.322;2022-11-20T05:19:28;15.55;;;9.63;;
53151;SDS011;39234;53.158;6.322;2022-11-20T05:21:54;16.13;;;9.38;;
53151;SDS011;39234;53.158;6.322;2022-11-20T05:24:20;14.75;;;9.30;;
53151;SDS011;39234;53.158;6.322;2022-11-20T05:26:47;13.98;;;8.68;;
53151;SDS011;39234;53.158;6.322;2022-11-20T05:29:13;13.48;;;8.73;;
53151;SDS011;39234;53.158;6.322;2022-11-20T05:31:39;13.90;;;8.40;;
53151;SDS011;39234;53.158;6.322;2022-11-20T05:34:06;15.30;;;8.90;;
53151;SDS011;39234;53.158;6.322;2022-11-20T05:36:32;12.80;;;8.50;;
53151;SDS011;39234;53.158;6.322;2022-11-20T05:38:58;14.70;;;8.45;;
53151;SDS011;39234;53.158;6.322;2022-11-20T05:41:24;13.43;;;8.80;;
53151;SDS011;39234;53.158;6.322;2022-11-20T05:43:51;12.40;;;8.75;;
53151;SDS011;39234;53.158;6.322;2022-11-20T05:46:18;12.27;;;8.90;;
53151;SDS011;39234;53.158;6.322;2022-11-20T05:48:45;12.20;;;8.27;;
53151;SDS011;39234;53.158;6.322;2022-11-20T05:51:13;13.05;;;9.07;;
53151;SDS011;39234;53.158;6.322;2022-11-20T05:53:40;13.15;;;8.15;;
53151;SDS011;39234;53.158;6.322;2022-11-20T05:56:08;13.07;;;8.77;;
53151;SDS011;39234;53.158;6.322;2022-11-20T05:58:36;12.05;;;8.30;;
53151;SDS011;39234;53.158;6.322;2022-11-20T06:01:19;12.70;;;8.80;;
53151;SDS011;39234;53.158;6.322;2022-11-20T06:03:49;13.25;;;8.13;;
53151;SDS011;39234;53.158;6.322;2022-11-20T06:06:15;12.35;;;8.27;;
53151;SDS011;39234;53.158;6.322;2022-11-20T06:08:42;12.50;;;8.93;;
53151;SDS011;39234;53.158;6.322;2022-11-20T06:11:09;12.60;;;8.07;;
53151;SDS011;39234;53.158;6.322;2022-11-20T06:13:35;13.80;;;9.35;;
53151;SDS011;39234;53.158;6.322;2022-11-20T06:16:01;13.98;;;8.85;;
53151;SDS011;39234;53.158;6.322;2022-11-20T06:18:28;13.55;;;8.98;;
53151;SDS011;39234;53.158;6.322;2022-11-20T06:21:05;14.77;;;9.88;;
53151;SDS011;39234;53.158;6.322;2022-11-20T06:23:31;12.65;;;9.05;;
53151;SDS011;39234;53.158;6.322;2022-11-20T06:26:00;15.68;;;10.63;;
53151;SDS011;39234;53.158;6.322;2022-11-20T06:28:26;14.45;;;9.18;;
53151;SDS011;39234;53.158;6.322;2022-11-20T06:30:52;12.15;;;7.95;;
53151;SDS011;39234;53.158;6.322;2022-11-20T06:33:18;12.73;;;8.70;;
53151;SDS011;39234;53.158;6.322;2022-11-20T06:35:44;13.77;;;9.13;;
53151;SDS011;39234;53.158;6.322;2022-11-20T06:38:11;11.98;;;8.63;;
53151;SDS011;39234;53.158;6.322;2022-11-20T06:40:39;11.57;;;8.38;;
53151;SDS011;39234;53.158;6.322;2022-11-20T06:43:05;14.60;;;8.70;;
53151;SDS011;39234;53.158;6.322;2022-11-20T06:45:31;13.20;;;8.68;;
53151;SDS011;39234;53.158;6.322;2022-11-20T06:47:57;11.73;;;8.43;;
53151;SDS011;39234;53.158;6.322;2022-11-20T06:50:24;15.75;;;9.25;;
53151;SDS011;39234;53.158;6.322;2022-11-20T06:52:50;13.43;;;9.23;;
53151;SDS011;39234;53.158;6.322;2022-11-20T06:55:16;13.13;;;9.32;;
53151;SDS011;39234;53.158;6.322;2022-11-20T06:57:42;12.98;;;9.20;;
53151;SDS011;39234;53.158;6.322;2022-11-20T07:00:08;12.93;;;8.55;;
53151;SDS011;39234;53.158;6.322;2022-11-20T07:02:34;13.30;;;9.30;;
53151;SDS011;39234;53.158;6.322;2022-11-20T07:05:00;13.75;;;9.57;;
53151;SDS011;39234;53.158;6.322;2022-11-20T07:07:26;12.68;;;8.60;;
53151;SDS011;39234;53.158;6.322;2022-11-20T07:09:53;14.70;;;8.82;;
53151;SDS011;39234;53.158;6.322;2022-11-20T07:12:19;14.30;;;9.10;;
53151;SDS011;39234;53.158;6.322;2022-11-20T07:14:45;12.50;;;8.55;;
53151;SDS011;39234;53.158;6.322;2022-11-20T07:17:11;12.50;;;8.50;;
53151;SDS011;39234;53.158;6.322;2022-11-20T07:19:37;12.05;;;8.55;;
53151;SDS011;39234;53.158;6.322;2022-11-20T07:22:03;12.52;;;8.70;;
53151;SDS011;39234;53.158;6.322;2022-11-20T07:24:29;13.98;;;9.98;;
53151;SDS011;39234;53.158;6.322;2022-11-20T07:26:55;14.13;;;9.23;;
53151;SDS011;39234;53.158;6.322;2022-11-20T07:29:21;13.68;;;8.73;;
53151;SDS011;39234;53.158;6.322;2022-11-20T07:31:47;14.88;;;9.40;;
53151;SDS011;39234;53.158;6.322;2022-11-20T07:34:13;13.60;;;8.48;;
53151;SDS011;39234;53.158;6.322;2022-11-20T07:36:40;12.13;;;8.23;;
53151;SDS011;39234;53.158;6.322;2022-11-20T07:39:06;14.48;;;9.68;;
53151;SDS011;39234;53.158;6.322;2022-11-20T07:41:32;12.80;;;9.10;;
53151;SDS011;39234;53.158;6.322;2022-11-20T07:43:58;13.20;;;9.52;;
53151;SDS011;39234;53.158;6.322;2022-11-20T07:46:25;14.95;;;9.27;;
53151;SDS011;39234;53.158;6.322;2022-11-20T07:48:51;13.30;;;8.95;;
53151;SDS011;39234;53.158;6.322;2022-11-20T07:51:17;14.25;;;9.15;;
53151;SDS011;39234;53.158;6.322;2022-11-20T07:53:43;12.70;;;9.00;;
53151;SDS011;39234;53.158;6.322;2022-11-20T07:56:09;13.52;;;9.38;;
53151;SDS011;39234;53.158;6.322;2022-11-20T07:58:35;14.30;;;9.45;;
53151;SDS011;39234;53.158;6.322;2022-11-20T08:01:05;13.98;;;8.70;;
53151;SDS011;39234;53.158;6.322;2022-11-20T08:03:32;11.82;;;8.50;;
53151;SDS011;39234;53.158;6.322;2022-11-20T08:05:58;12.82;;;9.05;;
53151;SDS011;39234;53.158;6.322;2022-11-20T08:08:25;13.90;;;8.98;;
53151;SDS011;39234;53.158;6.322;2022-11-20T08:10:51;13.88;;;9.40;;
53151;SDS011;39234;53.158;6.322;2022-11-20T08:13:17;14.77;;;10.65;;
53151;SDS011;39234;53.158;6.322;2022-11-20T08:16:02;13.63;;;9.88;;
53151;SDS011;39234;53.158;6.322;2022-11-20T08:18:28;19.27;;;8.85;;
53151;SDS011;39234;53.158;6.322;2022-11-20T08:20:54;15.52;;;9.27;;
53151;SDS011;39234;53.158;6.322;2022-11-20T08:23:22;15.32;;;9.40;;
53151;SDS011;39234;53.158;6.322;2022-11-20T08:25:49;12.57;;;9.02;;
53151;SDS011;39234;53.158;6.322;2022-11-20T08:28:15;13.88;;;9.65;;
53151;SDS011;39234;53.158;6.322;2022-11-20T08:30:41;12.50;;;8.98;;
53151;SDS011;39234;53.158;6.322;2022-11-20T08:33:07;16.17;;;10.40;;
53151;SDS011;39234;53.158;6.322;2022-11-20T08:35:37;14.25;;;9.32;;
53151;SDS011;39234;53.158;6.322;2022-11-20T08:38:06;13.02;;;8.77;;
53151;SDS011;39234;53.158;6.322;2022-11-20T08:40:32;16.20;;;9.65;;
53151;SDS011;39234;53.158;6.322;2022-11-20T08:42:58;12.82;;;9.02;;
53151;SDS011;39234;53.158;6.322;2022-11-20T08:45:24;14.43;;;9.48;;
53151;SDS011;39234;53.158;6.322;2022-11-20T08:47:50;11.95;;;8.60;;
53151;SDS011;39234;53.158;6.322;2022-11-20T08:50:17;13.93;;;9.68;;
53151;SDS011;39234;53.158;6.322;2022-11-20T08:52:43;13.75;;;8.80;;
53151;SDS011;39234;53.158;6.322;2022-11-20T08:55:09;15.00;;;9.75;;
53151;SDS011;39234;53.158;6.322;2022-11-20T08:57:35;14.40;;;9.85;;
53151;SDS011;39234;53.158;6.322;2022-11-20T09:00:03;13.40;;;9.32;;
53151;SDS011;39234;53.158;6.322;2022-11-20T09:02:29;14.57;;;10.00;;
53151;SDS011;39234;53.158;6.322;2022-11-20T09:04:55;17.13;;;10.13;;
53151;SDS011;39234;53.158;6.322;2022-11-20T09:07:21;13.55;;;9.43;;
53151;SDS011;39234;53.158;6.322;2022-11-20T09:09:47;14.15;;;9.45;;
53151;SDS011;39234;53.158;6.322;2022-11-20T09:12:14;13.63;;;8.90;;
53151;SDS011;39234;53.158;6.322;2022-11-20T09:14:40;12.93;;;9.27;;
53151;SDS011;39234;53.158;6.322;2022-11-20T09:17:06;14.38;;;9.32;;
53151;SDS011;39234;53.158;6.322;2022-11-20T09:19:33;13.75;;;8.82;;
53151;SDS011;39234;53.158;6.322;2022-11-20T09:21:59;15.95;;;9.43;;
53151;SDS011;39234;53.158;6.322;2022-11-20T09:24:25;13.70;;;9.02;;
53151;SDS011;39234;53.158;6.322;2022-11-20T09:26:51;12.73;;;8.68;;
53151;SDS011;39234;53.158;6.322;2022-11-20T09:29:17;16.45;;;9.18;;
53151;SDS011;39234;53.158;6.322;2022-11-20T09:31:43;13.90;;;8.40;;
53151;SDS011;39234;53.158;6.322;2022-11-20T09:34:10;14.27;;;9.43;;
53151;SDS011;39234;53.158;6.322;2022-11-20T09:36:36;14.10;;;9.90;;
53151;SDS011;39234;53.158;6.322;2022-11-20T09:39:02;13.18;;;9.23;;
53151;SDS011;39234;53.158;6.322;2022-11-20T09:47:08;13.38;;;9.23;;
53151;SDS011;39234;53.158;6.322;2022-11-20T09:52:47;13.23;;;8.68;;
53151;SDS011;39234;53.158;6.322;2022-11-20T09:55:16;12.20;;;8.70;;
53151;SDS011;39234;53.158;6.322;2022-11-20T09:57:43;13.57;;;8.77;;
53151;SDS011;39234;53.158;6.322;2022-11-20T10:00:13;12.93;;;9.05;;
53151;SDS011;39234;53.158;6.322;2022-11-20T10:03:00;11.15;;;8.38;;
53151;SDS011;39234;53.158;6.322;2022-11-20T10:05:39;12.65;;;8.27;;
53151;SDS011;39234;53.158;6.322;2022-11-20T10:24:22;12.20;;;8.13;;
53151;SDS011;39234;53.158;6.322;2022-11-20T10:26:57;13.32;;;8.50;;
53151;SDS011;39234;53.158;6.322;2022-11-20T10:29:29;13.60;;;8.98;;
53151;SDS011;39234;53.158;6.322;2022-11-20T10:32:02;11.68;;;8.23;;
53151;SDS011;39234;53.158;6.322;2022-11-20T10:34:53;13.52;;;9.55;;
53151;SDS011;39234;53.158;6.322;2022-11-20T10:37:23;12.13;;;9.02;;
53151;SDS011;39234;53.158;6.322;2022-11-20T10:39:58;15.00;;;9.63;;
53151;SDS011;39234;53.158;6.322;2022-11-20T10:42:45;13.77;;;8.77;;
53151;SDS011;39234;53.158;6.322;2022-11-20T10:48:28;13.60;;;9.25;;
53151;SDS011;39234;53.158;6.322;2022-11-20T10:51:12;13.32;;;8.85;;
53151;SDS011;39234;53.158;6.322;2022-11-20T10:53:57;11.40;;;8.43;;
53151;SDS011;39234;53.158;6.322;2022-11-20T10:56:40;13.90;;;8.23;;
53151;SDS011;39234;53.158;6.322;2022-11-20T11:01:59;12.88;;;8.38;;
53151;SDS011;39234;53.158;6.322;2022-11-20T11:06:54;12.57;;;7.85;;
53151;SDS011;39234;53.158;6.322;2022-11-20T11:09:29;12.27;;;8.00;;
53151;SDS011;39234;53.158;6.322;2022-11-20T11:11:59;12.60;;;8.60;;
53151;SDS011;39234;53.158;6.322;2022-11-20T11:14:25;13.05;;;8.85;;
53151;SDS011;39234;53.158;6.322;2022-11-20T11:16:55;14.40;;;9.75;;
53151;SDS011;39234;53.158;6.322;2022-11-20T11:19:22;13.25;;;8.57;;
53151;SDS011;39234;53.158;6.322;2022-11-20T11:21:50;13.43;;;9.38;;
53151;SDS011;39234;53.158;6.322;2022-11-20T11:26:58;12.25;;;8.07;;
53151;SDS011;39234;53.158;6.322;2022-11-20T11:29:24;11.63;;;7.65;;
53151;SDS011;39234;53.158;6.322;2022-11-20T11:32:03;11.07;;;7.55;;
53151;SDS011;39234;53.158;6.322;2022-11-20T11:34:32;13.82;;;8.13;;
53151;SDS011;39234;53.158;6.322;2022-11-20T11:36:59;11.45;;;7.43;;
53151;SDS011;39234;53.158;6.322;2022-11-20T11:39:28;10.63;;;6.50;;
53151;SDS011;39234;53.158;6.322;2022-11-20T11:41:55;10.23;;;6.30;;
53151;SDS011;39234;53.158;6.322;2022-11-20T11:44:26;11.30;;;6.80;;
53151;SDS011;39234;53.158;6.322;2022-11-20T11:50:00;10.88;;;7.07;;
53151;SDS011;39234;53.158;6.322;2022-11-20T12:07:11;8.98;;;4.43;;
53151;SDS011;39234;53.158;6.322;2022-11-20T12:09:48;8.20;;;4.75;;
53151;SDS011;39234;53.158;6.322;2022-11-20T12:12:18;6.68;;;4.25;;
53151;SDS011;39234;53.158;6.322;2022-11-20T12:14:47;7.93;;;4.57;;
53151;SDS011;39234;53.158;6.322;2022-11-20T12:17:16;9.55;;;4.75;;
53151;SDS011;39234;53.158;6.322;2022-11-20T12:19:43;6.93;;;4.47;;
53151;SDS011;39234;53.158;6.322;2022-11-20T12:25:14;6.43;;;4.38;;
53151;SDS011;39234;53.158;6.322;2022-11-20T12:30:29;8.93;;;4.95;;
53151;SDS011;39234;53.158;6.322;2022-11-20T12:33:15;8.77;;;4.70;;
53151;SDS011;39234;53.158;6.322;2022-11-20T12:41:15;8.70;;;5.32;;
53151;SDS011;39234;53.158;6.322;2022-11-20T12:47:19;12.43;;;5.90;;
53151;SDS011;39234;53.158;6.322;2022-11-20T12:50:06;7.82;;;5.32;;
53151;SDS011;39234;53.158;6.322;2022-11-20T12:52:56;8.75;;;5.90;;
53151;SDS011;39234;53.158;6.322;2022-11-20T13:01:25;10.05;;;6.45;;
53151;SDS011;39234;53.158;6.322;2022-11-20T13:06:49;10.80;;;5.85;;
53151;SDS011;39234;53.158;6.322;2022-11-20T13:09:17;8.30;;;5.55;;
53151;SDS011;39234;53.158;6.322;2022-11-20T13:12:01;8.20;;;5.53;;
53151;SDS011;39234;53.158;6.322;2022-11-20T13:17:56;8.98;;;5.10;;
53151;SDS011;39234;53.158;6.322;2022-11-20T13:20:24;8.05;;;5.13;;
53151;SDS011;39234;53.158;6.322;2022-11-20T13:22:56;10.13;;;5.95;;
53151;SDS011;39234;53.158;6.322;2022-11-20T13:27:48;8.43;;;5.20;;
53151;SDS011;39234;53.158;6.322;2022-11-20T13:30:19;8.02;;;4.97;;
53151;SDS011;39234;53.158;6.322;2022-11-20T13:35:35;7.63;;;5.10;;
53151;SDS011;39234;53.158;6.322;2022-11-20T13:38:09;8.10;;;5.20;;
53151;SDS011;39234;53.158;6.322;2022-11-20T13:40:58;6.97;;;4.47;;
53151;SDS011;39234;53.158;6.322;2022-11-20T13:43:28;7.20;;;4.15;;
53151;SDS011;39234;53.158;6.322;2022-11-20T13:46:04;6.72;;;4.22;;
53151;SDS011;39234;53.158;6.322;2022-11-20T13:48:32;7.45;;;4.15;;
53151;SDS011;39234;53.158;6.322;2022-11-20T14:01:53;8.23;;;4.50;;
53151;SDS011;39234;53.158;6.322;2022-11-20T14:04:23;7.18;;;4.43;;
53151;SDS011;39234;53.158;6.322;2022-11-20T14:06:54;8.35;;;4.40;;
53151;SDS011;39234;53.158;6.322;2022-11-20T14:09:30;6.43;;;4.07;;
53151;SDS011;39234;53.158;6.322;2022-11-20T14:11:57;7.70;;;4.50;;
53151;SDS011;39234;53.158;6.322;2022-11-20T14:14:24;8.05;;;4.45;;
53151;SDS011;39234;53.158;6.322;2022-11-20T14:16:52;6.78;;;4.35;;
53151;SDS011;39234;53.158;6.322;2022-11-20T14:19:29;6.95;;;4.38;;
53151;SDS011;39234;53.158;6.322;2022-11-20T14:22:10;8.98;;;4.72;;
53151;SDS011;39234;53.158;6.322;2022-11-20T14:25:00;6.30;;;4.05;;
53151;SDS011;39234;53.158;6.322;2022-11-20T14:27:32;7.70;;;4.70;;
53151;SDS011;39234;53.158;6.322;2022-11-20T14:30:02;10.75;;;5.38;;
53151;SDS011;39234;53.158;6.322;2022-11-20T14:32:29;7.32;;;4.43;;
53151;SDS011;39234;53.158;6.322;2022-11-20T14:34:57;8.35;;;4.63;;
53151;SDS011;39234;53.158;6.322;2022-11-20T14:37:28;9.45;;;4.82;;
53151;SDS011;39234;53.158;6.322;2022-11-20T14:39:59;8.07;;;4.60;;
53151;SDS011;39234;53.158;6.322;2022-11-20T14:42:26;6.97;;;4.72;;
53151;SDS011;39234;53.158;6.322;2022-11-20T14:44:54;8.50;;;4.93;;
53151;SDS011;39234;53.158;6.322;2022-11-20T14:47:23;7.80;;;4.93;;
53151;SDS011;39234;53.158;6.322;2022-11-20T14:49:51;8.20;;;4.68;;
53151;SDS011;39234;53.158;6.322;2022-11-20T14:52:19;8.38;;;5.18;;
53151;SDS011;39234;53.158;6.322;2022-11-20T14:54:53;7.53;;;4.80;;
53151;SDS011;39234;53.158;6.322;2022-11-20T15:00:19;9.02;;;4.80;;
53151;SDS011;39234;53.158;6.322;2022-11-20T15:02:48;8.18;;;4.93;;
53151;SDS011;39234;53.158;6.322;2022-11-20T15:05:15;9.55;;;4.90;;
53151;SDS011;39234;53.158;6.322;2022-11-20T15:07:46;8.13;;;4.57;;
53151;SDS011;39234;53.158;6.322;2022-11-20T15:12:54;7.25;;;4.82;;
53151;SDS011;39234;53.158;6.322;2022-11-20T15:15:28;7.13;;;4.53;;
53151;SDS011;39234;53.158;6.322;2022-11-20T15:17:55;7.93;;;5.00;;
53151;SDS011;39234;53.158;6.322;2022-11-20T15:20:22;8.18;;;4.75;;
53151;SDS011;39234;53.158;6.322;2022-11-20T15:22:51;10.30;;;5.72;;
53151;SDS011;39234;53.158;6.322;2022-11-20T15:25:17;7.65;;;5.15;;
53151;SDS011;39234;53.158;6.322;2022-11-20T15:27:44;9.45;;;5.20;;
53151;SDS011;39234;53.158;6.322;2022-11-20T15:30:15;8.25;;;5.07;;
53151;SDS011;39234;53.158;6.322;2022-11-20T15:32:42;8.50;;;5.40;;
53151;SDS011;39234;53.158;6.322;2022-11-20T15:35:08;8.20;;;5.15;;
53151;SDS011;39234;53.158;6.322;2022-11-20T15:37:35;9.23;;;5.57;;
53151;SDS011;39234;53.158;6.322;2022-11-20T15:40:02;8.35;;;5.32;;
53151;SDS011;39234;53.158;6.322;2022-11-20T15:42:28;8.00;;;5.07;;
53151;SDS011;39234;53.158;6.322;2022-11-20T15:44:54;8.48;;;5.30;;
53151;SDS011;39234;53.158;6.322;2022-11-20T15:47:20;8.63;;;5.15;;
53151;SDS011;39234;53.158;6.322;2022-11-20T15:49:52;8.20;;;5.05;;
53151;SDS011;39234;53.158;6.322;2022-11-20T15:52:18;9.05;;;5.13;;
53151;SDS011;39234;53.158;6.322;2022-11-20T15:54:44;11.82;;;5.88;;
53151;SDS011;39234;53.158;6.322;2022-11-20T15:57:10;8.85;;;5.45;;
53151;SDS011;39234;53.158;6.322;2022-11-20T15:59:38;9.77;;;6.32;;
53151;SDS011;39234;53.158;6.322;2022-11-20T16:02:10;8.65;;;5.65;;
53151;SDS011;39234;53.158;6.322;2022-11-20T16:07:03;9.80;;;6.03;;
53151;SDS011;39234;53.158;6.322;2022-11-20T16:09:29;10.27;;;6.70;;
53151;SDS011;39234;53.158;6.322;2022-11-20T16:11:55;13.35;;;6.18;;
53151;SDS011;39234;53.158;6.322;2022-11-20T16:14:24;15.00;;;7.95;;
53151;SDS011;39234;53.158;6.322;2022-11-20T16:17:08;11.05;;;7.00;;
53151;SDS011;39234;53.158;6.322;2022-11-20T16:19:34;12.10;;;7.70;;
53151;SDS011;39234;53.158;6.322;2022-11-20T16:22:00;11.13;;;7.13;;
53151;SDS011;39234;53.158;6.322;2022-11-20T16:24:26;11.90;;;7.70;;
53151;SDS011;39234;53.158;6.322;2022-11-20T16:26:53;12.65;;;7.82;;
53151;SDS011;39234;53.158;6.322;2022-11-20T16:29:19;11.50;;;7.32;;
53151;SDS011;39234;53.158;6.322;2022-11-20T16:31:45;11.77;;;7.82;;
53151;SDS011;39234;53.158;6.322;2022-11-20T16:34:11;11.65;;;8.07;;